sensor_id;sensor_type;location;lat;lon;timestamp;pressure;altitude;pressure_sealevel;temperature;humidity
66681;BME280;53575;51.366;12.350;2023-01-05T00:01:31;99801.97;;;11.47;78.88
66681;BME280;53575;51.366;12.350;2023-01-05T00:03:57;99801.16;;;11.45;79.05
66681;BME280;53575;51.366;12.350;2023-01-05T00:06:22;99804.69;;;11.42;78.94
66681;BME280;53575;51.366;12.350;2023-01-05T00:08:48;99796.78;;;11.45;78.51
66681;BME280;53575;51.366;12.350;2023-01-05T00:11:23;99794.22;;;11.42;78.53
66681;BME280;53575;51.366;12.350;2023-01-05T00:14:13;99802.91;;;11.43;78.44
66681;BME280;53575;51.366;12.350;2023-01-05T00:16:57;99788.97;;;11.42;78.65
66681;BME280;53575;51.366;12.350;2023-01-05T00:19:41;99788.22;;;11.36;79.34
66681;BME280;53575;51.366;12.350;2023-01-05T00:22:27;99803.06;;;11.35;79.72
66681;BME280;53575;51.366;12.350;2023-01-05T00:25:07;99802.16;;;11.36;79.69
66681;BME280;53575;51.366;12.350;2023-01-05T00:27:33;99815.22;;;11.38;80.09
66681;BME280;53575;51.366;12.350;2023-01-05T00:29:59;99825.78;;;11.32;80.33
66681;BME280;53575;51.366;12.350;2023-01-05T00:32:25;99793.59;;;11.28;82.09
66681;BME280;53575;51.366;12.350;2023-01-05T00:34:52;99812.09;;;11.16;82.75
66681;BME280;53575;51.366;12.350;2023-01-05T00:37:22;99812.28;;;11.07;84.24
66681;BME280;53575;51.366;12.350;2023-01-05T00:39:48;99802.81;;;10.98;84.28
66681;BME280;53575;51.366;12.350;2023-01-05T00:42:14;99796.81;;;10.91;84.63
66681;BME280;53575;51.366;12.350;2023-01-05T00:44:39;99789.06;;;10.85;84.99
66681;BME280;53575;51.366;12.350;2023-01-05T00:47:05;99802.19;;;10.84;85.11
66681;BME280;53575;51.366;12.350;2023-01-05T00:49:30;99810.09;;;10.78;85.55
66681;BME280;53575;51.366;12.350;2023-01-05T00:51:56;99802.09;;;10.87;84.70
66681;BME280;53575;51.366;12.350;2023-01-05T00:54:21;99791.72;;;10.84;85.12
66681;BME280;53575;51.366;12.350;2023-01-05T00:56:46;99815.28;;;10.81;85.46
66681;BME280;53575;51.366;12.350;2023-01-05T00:59:15;99799.59;;;10.79;85.16
66681;BME280;53575;51.366;12.350;2023-01-05T01:01:44;99804.91;;;10.74;85.33
66681;BME280;53575;51.366;12.350;2023-01-05T01:04:10;99811.84;;;10.77;85.56
66681;BME280;53575;51.366;12.350;2023-01-05T01:06:36;99807.47;;;10.78;85.17
66681;BME280;53575;51.366;12.350;2023-01-05T01:09:02;99810.06;;;10.81;85.80
66681;BME280;53575;51.366;12.350;2023-01-05T01:11:27;99817.00;;;10.82;85.49
66681;BME280;53575;51.366;12.350;2023-01-05T01:13:53;99799.66;;;10.78;85.25
66681;BME280;53575;51.366;12.350;2023-01-05T01:16:18;99810.97;;;10.78;85.26
66681;BME280;53575;51.366;12.350;2023-01-05T01:18:44;99787.44;;;10.78;85.59
66681;BME280;53575;51.366;12.350;2023-01-05T01:21:09;99822.34;;;10.74;85.48
66681;BME280;53575;51.366;12.350;2023-01-05T01:23:35;99797.84;;;10.80;84.97
66681;BME280;53575;51.366;12.350;2023-01-05T01:26:08;99828.41;;;10.78;84.37
66681;BME280;53575;51.366;12.350;2023-01-05T01:28:34;99843.22;;;10.76;83.78
66681;BME280;53575;51.366;12.350;2023-01-05T01:31:00;99808.44;;;10.72;83.98
66681;BME280;53575;51.366;12.350;2023-01-05T01:33:26;99822.47;;;10.66;84.50
66681;BME280;53575;51.366;12.350;2023-01-05T01:35:52;99812.97;;;10.59;84.08
66681;BME280;53575;51.366;12.350;2023-01-05T01:38:18;99823.44;;;10.59;84.62
66681;BME280;53575;51.366;12.350;2023-01-05T01:40:45;99810.41;;;10.56;85.06
66681;BME280;53575;51.366;12.350;2023-01-05T01:46:06;99814.03;;;10.44;86.77
66681;BME280;53575;51.366;12.350;2023-01-05T01:48:32;99825.34;;;10.45;87.47
66681;BME280;53575;51.366;12.350;2023-01-05T01:50:59;99813.25;;;10.38;88.46
66681;BME280;53575;51.366;12.350;2023-01-05T01:53:48;99814.19;;;10.34;89.17
66681;BME280;53575;51.366;12.350;2023-01-05T01:56:17;99817.72;;;10.30;89.81
66681;BME280;53575;51.366;12.350;2023-01-05T01:58:45;99819.47;;;10.31;90.68
66681;BME280;53575;51.366;12.350;2023-01-05T02:01:11;99822.03;;;10.34;90.80
66681;BME280;53575;51.366;12.350;2023-01-05T02:03:37;99804.66;;;10.31;91.27
66681;BME280;53575;51.366;12.350;2023-01-05T02:06:03;99817.72;;;10.31;91.21
66681;BME280;53575;51.366;12.350;2023-01-05T02:08:29;99815.13;;;10.31;91.26
66681;BME280;53575;51.366;12.350;2023-01-05T02:11:14;99808.94;;;10.37;90.63
66681;BME280;53575;51.366;12.350;2023-01-05T02:16:54;99807.19;;;10.39;89.96
66681;BME280;53575;51.366;12.350;2023-01-05T02:31:21;99814.03;;;10.46;87.62
66681;BME280;53575;51.366;12.350;2023-01-05T02:33:54;99809.69;;;10.45;87.25
66681;BME280;53575;51.366;12.350;2023-01-05T02:36:33;99800.97;;;10.46;87.05
66681;BME280;53575;51.366;12.350;2023-01-05T02:39:08;99807.06;;;10.45;86.70
66681;BME280;53575;51.366;12.350;2023-01-05T02:41:58;99795.69;;;10.49;86.82
66681;BME280;53575;51.366;12.350;2023-01-05T02:44:28;99806.09;;;10.52;86.11
66681;BME280;53575;51.366;12.350;2023-01-05T02:52:21;99803.47;;;10.55;85.76
66681;BME280;53575;51.366;12.350;2023-01-05T02:54:52;99807.84;;;10.53;86.14
66681;BME280;53575;51.366;12.350;2023-01-05T02:57:24;99815.75;;;10.47;86.78
66681;BME280;53575;51.366;12.350;2023-01-05T03:00:15;99845.44;;;10.41;88.97
66681;BME280;53575;51.366;12.350;2023-01-05T03:02:44;99850.94;;;10.17;93.07
66681;BME280;53575;51.366;12.350;2023-01-05T03:05:16;99833.84;;;9.90;95.60
66681;BME280;53575;51.366;12.350;2023-01-05T03:07:44;99843.66;;;9.65;100.00
66681;BME280;53575;51.366;12.350;2023-01-05T03:10:12;99828.22;;;9.45;100.00
66681;BME280;53575;51.366;12.350;2023-01-05T03:13:00;99834.53;;;9.18;100.00
66681;BME280;53575;51.366;12.350;2023-01-05T03:15:45;99825.91;;;9.13;100.00
66681;BME280;53575;51.366;12.350;2023-01-05T03:18:16;99825.97;;;9.02;100.00
66681;BME280;53575;51.366;12.350;2023-01-05T03:20:47;99826.81;;;9.09;100.00
66681;BME280;53575;51.366;12.350;2023-01-05T03:23:16;99833.75;;;9.08;100.00
66681;BME280;53575;51.366;12.350;2023-01-05T03:26:02;99833.72;;;9.11;100.00
66681;BME280;53575;51.366;12.350;2023-01-05T03:28:50;99837.22;;;9.10;100.00
66681;BME280;53575;51.366;12.350;2023-01-05T03:32:04;99846.72;;;9.14;100.00
66681;BME280;53575;51.366;12.350;2023-01-05T03:34:58;99834.59;;;9.10;100.00
66681;BME280;53575;51.366;12.350;2023-01-05T03:37:52;99848.44;;;9.15;100.00
66681;BME280;53575;51.366;12.350;2023-01-05T03:40:31;99844.94;;;9.19;100.00
66681;BME280;53575;51.366;12.350;2023-01-05T03:42:57;99846.69;;;9.20;100.00
66681;BME280;53575;51.366;12.350;2023-01-05T03:45:24;99837.13;;;9.19;100.00
66681;BME280;53575;51.366;12.350;2023-01-05T03:47:52;99858.81;;;9.23;100.00
66681;BME280;53575;51.366;12.350;2023-01-05T03:50:18;99855.31;;;9.27;100.00
66681;BME280;53575;51.366;12.350;2023-01-05T03:52:43;99855.25;;;9.35;98.45
66681;BME280;53575;51.366;12.350;2023-01-05T03:55:09;99849.19;;;9.33;98.78
66681;BME280;53575;51.366;12.350;2023-01-05T03:57:34;99856.91;;;9.42;96.58
66681;BME280;53575;51.366;12.350;2023-01-05T04:00:00;99857.78;;;9.44;96.85
66681;BME280;53575;51.366;12.350;2023-01-05T04:02:25;99862.13;;;9.42;96.16
66681;BME280;53575;51.366;12.350;2023-01-05T04:04:50;99862.19;;;9.37;96.47
66681;BME280;53575;51.366;12.350;2023-01-05T04:07:16;99858.69;;;9.40;95.05
66681;BME280;53575;51.366;12.350;2023-01-05T04:09:41;99862.19;;;9.39;95.33
66681;BME280;53575;51.366;12.350;2023-01-05T04:12:07;99870.81;;;9.47;94.65
66681;BME280;53575;51.366;12.350;2023-01-05T04:14:32;99901.22;;;9.48;93.89
66681;BME280;53575;51.366;12.350;2023-01-05T04:16:58;99871.59;;;9.55;92.60
66681;BME280;53575;51.366;12.350;2023-01-05T04:19:23;99864.59;;;9.57;92.12
66681;BME280;53575;51.366;12.350;2023-01-05T04:21:49;99874.19;;;9.57;91.82
66681;BME280;53575;51.366;12.350;2023-01-05T04:24:14;99860.31;;;9.51;92.42
66681;BME280;53575;51.366;12.350;2023-01-05T04:26:39;99862.91;;;9.55;92.14
66681;BME280;53575;51.366;12.350;2023-01-05T04:29:06;99878.56;;;9.53;91.61
66681;BME280;53575;51.366;12.350;2023-01-05T04:31:33;99869.91;;;9.48;91.70
66681;BME280;53575;51.366;12.350;2023-01-05T04:33:59;99868.25;;;9.38;92.00
66681;BME280;53575;51.366;12.350;2023-01-05T04:36:24;99871.84;;;9.27;92.69
66681;BME280;53575;51.366;12.350;2023-01-05T04:38:49;99860.53;;;9.25;92.01
66681;BME280;53575;51.366;12.350;2023-01-05T04:41:15;99863.13;;;9.27;91.54
66681;BME280;53575;51.366;12.350;2023-01-05T04:43:40;99871.84;;;9.26;91.62
66681;BME280;53575;51.366;12.350;2023-01-05T04:46:06;99883.06;;;9.34;90.80
66681;BME280;53575;51.366;12.350;2023-01-05T04:48:31;99881.34;;;9.33;90.79
66681;BME280;53575;51.366;12.350;2023-01-05T04:50:57;99880.47;;;9.34;90.96
66681;BME280;53575;51.366;12.350;2023-01-05T04:53:23;99883.13;;;9.31;90.50
66681;BME280;53575;51.366;12.350;2023-01-05T04:55:49;99877.88;;;9.33;89.91
66681;BME280;53575;51.366;12.350;2023-01-05T04:58:15;99878.72;;;9.35;89.93
66681;BME280;53575;51.366;12.350;2023-01-05T05:00:40;99888.25;;;9.40;89.07
66681;BME280;53575;51.366;12.350;2023-01-05T05:03:06;99882.16;;;9.43;88.75
66681;BME280;53575;51.366;12.350;2023-01-05T05:05:32;99885.53;;;9.52;87.30
66681;BME280;53575;51.366;12.350;2023-01-05T05:07:57;99887.25;;;9.55;86.88
66681;BME280;53575;51.366;12.350;2023-01-05T05:10:23;99880.25;;;9.60;86.87
66681;BME280;53575;51.366;12.350;2023-01-05T05:12:48;99879.34;;;9.63;86.68
66681;BME280;53575;51.366;12.350;2023-01-05T05:15:14;99903.69;;;9.63;86.21
66681;BME280;53575;51.366;12.350;2023-01-05T05:17:39;99886.25;;;9.70;85.03
66681;BME280;53575;51.366;12.350;2023-01-05T05:20:05;99891.47;;;9.68;85.21
66681;BME280;53575;51.366;12.350;2023-01-05T05:22:31;99893.13;;;9.75;84.70
66681;BME280;53575;51.366;12.350;2023-01-05T05:24:56;99897.53;;;9.73;84.31
66681;BME280;53575;51.366;12.350;2023-01-05T05:27:22;99900.09;;;9.75;84.08
66681;BME280;53575;51.366;12.350;2023-01-05T05:29:47;99900.09;;;9.75;84.15
66681;BME280;53575;51.366;12.350;2023-01-05T05:32:13;99900.13;;;9.73;84.65
66681;BME280;53575;51.366;12.350;2023-01-05T05:34:38;99894.88;;;9.75;84.07
66681;BME280;53575;51.366;12.350;2023-01-05T05:37:03;99906.22;;;9.72;83.87
66681;BME280;53575;51.366;12.350;2023-01-05T05:39:29;99908.88;;;9.68;83.94
66681;BME280;53575;51.366;12.350;2023-01-05T05:41:55;99902.84;;;9.63;84.24
66681;BME280;53575;51.366;12.350;2023-01-05T05:44:20;99912.44;;;9.56;84.52
66681;BME280;53575;51.366;12.350;2023-01-05T05:46:46;99909.88;;;9.51;84.07
66681;BME280;53575;51.366;12.350;2023-01-05T05:49:11;99911.63;;;9.49;84.16
66681;BME280;53575;51.366;12.350;2023-01-05T05:51:39;99929.84;;;9.56;84.31
66681;BME280;53575;51.366;12.350;2023-01-05T05:54:05;99912.47;;;9.55;84.08
66681;BME280;53575;51.366;12.350;2023-01-05T05:56:31;99924.66;;;9.54;84.04
66681;BME280;53575;51.366;12.350;2023-01-05T05:58:56;99935.94;;;9.53;83.65
66681;BME280;53575;51.366;12.350;2023-01-05T06:01:22;99923.75;;;9.55;83.65
66681;BME280;53575;51.366;12.350;2023-01-05T06:03:47;99939.41;;;9.58;83.42
66681;BME280;53575;51.366;12.350;2023-01-05T06:06:13;99935.94;;;9.53;84.01
66681;BME280;53575;51.366;12.350;2023-01-05T06:08:38;99950.75;;;9.54;84.12
66681;BME280;53575;51.366;12.350;2023-01-05T06:11:04;99948.97;;;9.56;83.38
66681;BME280;53575;51.366;12.350;2023-01-05T06:13:29;99954.16;;;9.58;83.31
66681;BME280;53575;51.366;12.350;2023-01-05T06:15:55;99944.63;;;9.55;83.15
66681;BME280;53575;51.366;12.350;2023-01-05T06:18:20;99953.38;;;9.51;83.36
66681;BME280;53575;51.366;12.350;2023-01-05T06:20:46;99946.38;;;9.53;83.51
66681;BME280;53575;51.366;12.350;2023-01-05T06:23:11;99952.53;;;9.44;84.13
66681;BME280;53575;51.366;12.350;2023-01-05T06:25:39;99956.88;;;9.44;83.59
66681;BME280;53575;51.366;12.350;2023-01-05T06:28:04;99961.22;;;9.42;83.71
66681;BME280;53575;51.366;12.350;2023-01-05T06:30:29;99959.44;;;9.51;82.81
66681;BME280;53575;51.366;12.350;2023-01-05T06:32:55;99968.09;;;9.57;82.51
66681;BME280;53575;51.366;12.350;2023-01-05T06:35:21;99962.91;;;9.52;82.53
66681;BME280;53575;51.366;12.350;2023-01-05T06:37:46;99971.59;;;9.56;82.14
66681;BME280;53575;51.366;12.350;2023-01-05T06:40:12;99972.44;;;9.59;82.38
66681;BME280;53575;51.366;12.350;2023-01-05T06:42:38;99978.53;;;9.57;82.41
66681;BME280;53575;51.366;12.350;2023-01-05T06:45:05;99975.88;;;9.61;82.23
66681;BME280;53575;51.366;12.350;2023-01-05T06:47:31;99986.34;;;9.58;82.35
66681;BME280;53575;51.366;12.350;2023-01-05T06:49:59;99997.63;;;9.62;82.24
66681;BME280;53575;51.366;12.350;2023-01-05T06:52:25;99991.50;;;9.64;81.90
66681;BME280;53575;51.366;12.350;2023-01-05T06:54:50;99990.63;;;9.67;82.33
66681;BME280;53575;51.366;12.350;2023-01-05T06:57:15;100000.19;;;9.68;82.31
66681;BME280;53575;51.366;12.350;2023-01-05T06:59:41;100008.03;;;9.66;81.97
66681;BME280;53575;51.366;12.350;2023-01-05T07:02:16;100005.44;;;9.63;82.34
66681;BME280;53575;51.366;12.350;2023-01-05T07:04:42;100002.84;;;9.62;82.73
66681;BME280;53575;51.366;12.350;2023-01-05T07:07:11;100005.47;;;9.57;83.52
66681;BME280;53575;51.366;12.350;2023-01-05T07:09:36;100019.41;;;9.56;83.62
66681;BME280;53575;51.366;12.350;2023-01-05T07:12:02;100012.47;;;9.49;83.87
66681;BME280;53575;51.366;12.350;2023-01-05T07:14:27;100017.69;;;9.52;83.98
66681;BME280;53575;51.366;12.350;2023-01-05T07:16:53;100029.84;;;9.53;84.28
66681;BME280;53575;51.366;12.350;2023-01-05T07:19:18;100026.41;;;9.51;84.20
66681;BME280;53575;51.366;12.350;2023-01-05T07:21:44;100017.75;;;9.44;84.86
66681;BME280;53575;51.366;12.350;2023-01-05T07:24:09;100025.53;;;9.50;84.42
66681;BME280;53575;51.366;12.350;2023-01-05T07:26:35;100035.97;;;9.50;84.55
66681;BME280;53575;51.366;12.350;2023-01-05T07:29:00;100034.25;;;9.45;84.57
66681;BME280;53575;51.366;12.350;2023-01-05T07:31:25;100044.66;;;9.54;84.93
66681;BME280;53575;51.366;12.350;2023-01-05T07:33:51;100060.28;;;9.56;84.49
66681;BME280;53575;51.366;12.350;2023-01-05T07:36:16;100042.91;;;9.51;84.77
66681;BME280;53575;51.366;12.350;2023-01-05T07:38:42;100066.38;;;9.50;84.59
66681;BME280;53575;51.366;12.350;2023-01-05T07:41:07;100050.72;;;9.53;84.93
66681;BME280;53575;51.366;12.350;2023-01-05T07:43:33;100059.44;;;9.49;85.12
66681;BME280;53575;51.366;12.350;2023-01-05T07:46:00;100043.78;;;9.52;85.26
66681;BME280;53575;51.366;12.350;2023-01-05T07:48:26;100071.56;;;9.53;85.02
66681;BME280;53575;51.366;12.350;2023-01-05T07:50:58;100073.34;;;9.54;85.49
66681;BME280;53575;51.366;12.350;2023-01-05T07:53:25;100080.28;;;9.58;85.67
66681;BME280;53575;51.366;12.350;2023-01-05T07:55:59;100074.19;;;9.53;87.35
66681;BME280;53575;51.366;12.350;2023-01-05T07:58:26;100075.13;;;9.44;89.01
66681;BME280;53575;51.366;12.350;2023-01-05T08:00:52;100070.81;;;9.36;90.13
66681;BME280;53575;51.366;12.350;2023-01-05T08:03:18;100083.03;;;9.26;90.11
66681;BME280;53575;51.366;12.350;2023-01-05T08:05:44;100084.78;;;9.22;90.95
66681;BME280;53575;51.366;12.350;2023-01-05T08:08:10;100087.41;;;9.21;90.71
66681;BME280;53575;51.366;12.350;2023-01-05T08:10:41;100090.88;;;9.18;90.28
66681;BME280;53575;51.366;12.350;2023-01-05T08:13:08;100095.22;;;9.19;89.88
66681;BME280;53575;51.366;12.350;2023-01-05T08:15:53;100095.19;;;9.25;89.85
66681;BME280;53575;51.366;12.350;2023-01-05T08:18:20;100094.31;;;9.31;89.51
66681;BME280;53575;51.366;12.350;2023-01-05T08:20:53;100113.38;;;9.38;88.80
66681;BME280;53575;51.366;12.350;2023-01-05T08:23:19;100108.19;;;9.35;89.79
66681;BME280;53575;51.366;12.350;2023-01-05T08:25:45;100108.19;;;9.33;90.13
66681;BME280;53575;51.366;12.350;2023-01-05T08:28:10;100105.63;;;9.28;91.01
66681;BME280;53575;51.366;12.350;2023-01-05T08:30:36;100112.56;;;9.30;90.83
66681;BME280;53575;51.366;12.350;2023-01-05T08:33:01;100128.19;;;9.33;90.41
66681;BME280;53575;51.366;12.350;2023-01-05T08:35:27;100109.06;;;9.37;90.13
66681;BME280;53575;51.366;12.350;2023-01-05T08:37:52;100120.34;;;9.34;90.84
66681;BME280;53575;51.366;12.350;2023-01-05T08:40:18;100126.44;;;9.36;91.45
66681;BME280;53575;51.366;12.350;2023-01-05T08:42:43;100125.59;;;9.30;91.63
66681;BME280;53575;51.366;12.350;2023-01-05T08:45:15;100123.88;;;9.28;91.66
66681;BME280;53575;51.366;12.350;2023-01-05T08:47:40;100146.44;;;9.34;91.74
66681;BME280;53575;51.366;12.350;2023-01-05T08:50:07;100139.47;;;9.44;90.66
66681;BME280;53575;51.366;12.350;2023-01-05T08:52:34;100144.66;;;9.47;89.70
66681;BME280;53575;51.366;12.350;2023-01-05T08:55:00;100151.59;;;9.54;89.69
66681;BME280;53575;51.366;12.350;2023-01-05T08:57:25;100142.88;;;9.58;89.31
66681;BME280;53575;51.366;12.350;2023-01-05T08:59:51;100138.50;;;9.57;89.68
66681;BME280;53575;51.366;12.350;2023-01-05T09:02:16;100145.47;;;9.57;90.17
66681;BME280;53575;51.366;12.350;2023-01-05T09:04:43;100153.31;;;9.53;89.86
66681;BME280;53575;51.366;12.350;2023-01-05T09:07:08;100164.63;;;9.56;90.51
66681;BME280;53575;51.366;12.350;2023-01-05T09:09:34;100177.69;;;9.54;91.26
66681;BME280;53575;51.366;12.350;2023-01-05T09:11:59;100175.97;;;9.47;93.09
66681;BME280;53575;51.366;12.350;2023-01-05T09:14:25;100178.59;;;9.38;93.98
66681;BME280;53575;51.366;12.350;2023-01-05T09:16:50;100171.69;;;9.26;95.14
66681;BME280;53575;51.366;12.350;2023-01-05T09:19:15;100183.00;;;9.14;95.83
66681;BME280;53575;51.366;12.350;2023-01-05T09:21:41;100177.78;;;9.20;96.44
66681;BME280;53575;51.366;12.350;2023-01-05T09:24:07;100182.13;;;9.21;96.32
66681;BME280;53575;51.366;12.350;2023-01-05T09:26:39;100188.19;;;9.30;96.00
66681;BME280;53575;51.366;12.350;2023-01-05T09:29:04;100178.59;;;9.36;94.78
66681;BME280;53575;51.366;12.350;2023-01-05T09:31:30;100182.06;;;9.38;94.46
66681;BME280;53575;51.366;12.350;2023-01-05T09:33:56;100189.03;;;9.35;94.59
66681;BME280;53575;51.366;12.350;2023-01-05T09:36:22;100198.59;;;9.30;94.77
66681;BME280;53575;51.366;12.350;2023-01-05T09:38:51;100191.66;;;9.28;95.51
66681;BME280;53575;51.366;12.350;2023-01-05T09:41:26;100198.59;;;9.30;95.35
66681;BME280;53575;51.366;12.350;2023-01-05T09:43:57;100196.84;;;9.44;94.72
66681;BME280;53575;51.366;12.350;2023-01-05T09:46:29;100197.69;;;9.41;94.09
66681;BME280;53575;51.366;12.350;2023-01-05T09:49:00;100207.28;;;9.39;94.79
66681;BME280;53575;51.366;12.350;2023-01-05T09:51:27;100209.88;;;9.44;94.32
66681;BME280;53575;51.366;12.350;2023-01-05T09:53:54;100206.38;;;9.48;93.70
66681;BME280;53575;51.366;12.350;2023-01-05T09:59:05;100223.72;;;9.57;93.90
66681;BME280;53575;51.366;12.350;2023-01-05T10:01:33;100216.84;;;9.39;96.22
66681;BME280;53575;51.366;12.350;2023-01-05T10:04:06;100228.19;;;9.22;98.13
66681;BME280;53575;51.366;12.350;2023-01-05T10:06:38;100229.06;;;9.17;98.97
66681;BME280;53575;51.366;12.350;2023-01-05T10:09:06;100229.06;;;9.15;98.80
66681;BME280;53575;51.366;12.350;2023-01-05T10:11:36;100224.72;;;9.20;98.74
66681;BME280;53575;51.366;12.350;2023-01-05T10:14:32;100215.13;;;9.39;98.30
66681;BME280;53575;51.366;12.350;2023-01-05T10:17:00;100216.81;;;9.51;96.61
66681;BME280;53575;51.366;12.350;2023-01-05T10:19:26;100218.50;;;9.63;97.03
66681;BME280;53575;51.366;12.350;2023-01-05T10:22:02;100222.88;;;9.62;95.11
66681;BME280;53575;51.366;12.350;2023-01-05T10:24:48;100230.66;;;9.65;96.58
66681;BME280;53575;51.366;12.350;2023-01-05T10:27:38;100224.63;;;9.51;98.04
66681;BME280;53575;51.366;12.350;2023-01-05T10:30:31;100228.13;;;9.38;99.58
66681;BME280;53575;51.366;12.350;2023-01-05T10:33:14;100224.69;;;9.30;100.00
66681;BME280;53575;51.366;12.350;2023-01-05T10:35:59;100225.56;;;9.28;100.00
66681;BME280;53575;51.366;12.350;2023-01-05T10:38:36;100222.09;;;9.22;100.00
66681;BME280;53575;51.366;12.350;2023-01-05T10:41:20;100237.75;;;9.25;100.00
66681;BME280;53575;51.366;12.350;2023-01-05T10:44:06;100223.78;;;9.38;100.00
66681;BME280;53575;51.366;12.350;2023-01-05T10:46:40;100231.59;;;9.41;100.00
66681;BME280;53575;51.366;12.350;2023-01-05T10:49:07;100229.03;;;9.40;100.00
66681;BME280;53575;51.366;12.350;2023-01-05T10:51:37;100218.53;;;9.55;100.00
66681;BME280;53575;51.366;12.350;2023-01-05T10:54:04;100243.66;;;9.79;97.50
66681;BME280;53575;51.366;12.350;2023-01-05T10:56:29;100249.72;;;9.87;96.17
66681;BME280;53575;51.366;12.350;2023-01-05T10:59:12;100234.91;;;9.92;94.78
66681;BME280;53575;51.366;12.350;2023-01-05T11:01:42;100240.09;;;9.97;94.43
66681;BME280;53575;51.366;12.350;2023-01-05T11:04:19;100244.44;;;10.01;94.33
66681;BME280;53575;51.366;12.350;2023-01-05T11:06:45;100244.41;;;10.06;93.86
66681;BME280;53575;51.366;12.350;2023-01-05T11:11:37;100244.31;;;10.22;92.33
66681;BME280;53575;51.366;12.350;2023-01-05T11:14:04;100249.56;;;10.15;91.33
66681;BME280;53575;51.366;12.350;2023-01-05T11:16:32;100244.34;;;10.15;90.48
66681;BME280;53575;51.366;12.350;2023-01-05T11:21:44;100252.16;;;10.25;90.14
66681;BME280;53575;51.366;12.350;2023-01-05T11:26:52;100255.63;;;10.21;90.60
66681;BME280;53575;51.366;12.350;2023-01-05T11:29:18;100262.63;;;10.16;90.33
66681;BME280;53575;51.366;12.350;2023-01-05T11:32:04;100255.69;;;10.09;91.36
66681;BME280;53575;51.366;12.350;2023-01-05T11:34:42;100259.16;;;10.16;90.97
66681;BME280;53575;51.366;12.350;2023-01-05T11:37:27;100263.47;;;10.21;90.34
66681;BME280;53575;51.366;12.350;2023-01-05T11:44:52;100287.06;;;10.05;91.22
66681;BME280;53575;51.366;12.350;2023-01-05T11:47:35;100284.47;;;9.97;92.43
66681;BME280;53575;51.366;12.350;2023-01-05T11:52:39;100300.09;;;10.06;92.67
66681;BME280;53575;51.366;12.350;2023-01-05T11:55:28;100284.47;;;10.00;92.88
66681;BME280;53575;51.366;12.350;2023-01-05T12:01:20;100301.84;;;9.99;93.88
66681;BME280;53575;51.366;12.350;2023-01-05T12:06:38;100290.53;;;10.05;92.91
66681;BME280;53575;51.366;12.350;2023-01-05T12:09:34;100292.25;;;10.11;92.82
66681;BME280;53575;51.366;12.350;2023-01-05T12:17:44;100308.78;;;10.10;92.84
66681;BME280;53575;51.366;12.350;2023-01-05T12:20:38;100300.13;;;10.05;92.78
66681;BME280;53575;51.366;12.350;2023-01-05T12:23:26;100305.28;;;10.17;92.82
66681;BME280;53575;51.366;12.350;2023-01-05T12:26:30;100313.97;;;10.28;92.92
66681;BME280;53575;51.366;12.350;2023-01-05T12:32:05;100310.47;;;10.29;92.57
66681;BME280;53575;51.366;12.350;2023-01-05T12:35:01;100318.31;;;10.28;92.77
66681;BME280;53575;51.366;12.350;2023-01-05T12:37:44;100327.00;;;10.30;92.64
66681;BME280;53575;51.366;12.350;2023-01-05T12:40:31;100325.25;;;10.22;93.32
66681;BME280;53575;51.366;12.350;2023-01-05T12:43:07;100324.44;;;10.19;93.37
66681;BME280;53575;51.366;12.350;2023-01-05T12:48:14;100332.25;;;10.17;93.14
66681;BME280;53575;51.366;12.350;2023-01-05T12:58:40;100350.66;;;9.82;97.81
66681;BME280;53575;51.366;12.350;2023-01-05T13:01:15;100357.63;;;9.75;98.01
66681;BME280;53575;51.366;12.350;2023-01-05T13:03:51;100357.66;;;9.69;98.97
66681;BME280;53575;51.366;12.350;2023-01-05T13:06:21;100366.31;;;9.74;99.11
66681;BME280;53575;51.366;12.350;2023-01-05T13:09:21;100381.97;;;9.79;98.91
66681;BME280;53575;51.366;12.350;2023-01-05T13:11:55;100371.56;;;9.73;98.87
66681;BME280;53575;51.366;12.350;2023-01-05T13:14:29;100364.59;;;9.75;99.06
66681;BME280;53575;51.366;12.350;2023-01-05T13:17:15;100382.84;;;9.61;99.30
66681;BME280;53575;51.366;12.350;2023-01-05T13:19:47;100386.34;;;9.60;99.81
66681;BME280;53575;51.366;12.350;2023-01-05T13:22:20;100376.78;;;9.62;100.00
66681;BME280;53575;51.366;12.350;2023-01-05T13:24:56;100389.84;;;9.47;100.00
66681;BME280;53575;51.366;12.350;2023-01-05T13:27:23;100403.75;;;9.29;100.00
66681;BME280;53575;51.366;12.350;2023-01-05T13:29:52;100382.88;;;9.37;100.00
66681;BME280;53575;51.366;12.350;2023-01-05T13:45:59;100407.22;;;9.79;100.00
66681;BME280;53575;51.366;12.350;2023-01-05T13:54:20;100414.16;;;9.80;100.00
66681;BME280;53575;51.366;12.350;2023-01-05T13:56:49;100411.53;;;9.86;100.00
66681;BME280;53575;51.366;12.350;2023-01-05T13:59:32;100421.13;;;9.82;100.00
66681;BME280;53575;51.366;12.350;2023-01-05T14:01:58;100428.09;;;9.75;100.00
66681;BME280;53575;51.366;12.350;2023-01-05T14:04:27;100437.63;;;9.76;100.00
66681;BME280;53575;51.366;12.350;2023-01-05T14:07:03;100435.06;;;9.66;100.00
66681;BME280;53575;51.366;12.350;2023-01-05T14:09:34;100441.13;;;9.71;100.00
66681;BME280;53575;51.366;12.350;2023-01-05T14:17:50;100468.09;;;9.56;99.64
66681;BME280;53575;51.366;12.350;2023-01-05T14:20:35;100473.31;;;9.65;99.50
66681;BME280;53575;51.366;12.350;2023-01-05T14:23:50;100465.47;;;9.68;99.28
66681;BME280;53575;51.366;12.350;2023-01-05T14:36:33;100502.00;;;9.53;100.00
66681;BME280;53575;51.366;12.350;2023-01-05T14:39:02;100504.59;;;9.58;100.00
66681;BME280;53575;51.366;12.350;2023-01-05T14:41:29;100510.69;;;9.53;100.00
66681;BME280;53575;51.366;12.350;2023-01-05T14:44:04;100500.28;;;9.57;100.00
66681;BME280;53575;51.366;12.350;2023-01-05T14:46:46;100499.41;;;9.53;100.00
66681;BME280;53575;51.366;12.350;2023-01-05T14:49:24;100526.34;;;9.57;100.00